sensor_id;sensor_type;location;lat;lon;timestamp;temperature;humidity
16102;DHT22;56411;52.964;10.540;2022-12-20T00:01:31;5.60;99.90
16102;DHT22;56411;52.964;10.540;2022-12-20T00:04:01;5.60;99.90
16102;DHT22;56411;52.964;10.540;2022-12-20T00:06:30;5.60;99.90
16102;DHT22;56411;52.964;10.540;2022-12-20T00:08:59;5.70;99.90
16102;DHT22;56411;52.964;10.540;2022-12-20T00:11:27;5.70;99.90
16102;DHT22;56411;52.964;10.540;2022-12-20T00:13:56;5.60;99.90
16102;DHT22;56411;52.964;10.540;2022-12-20T00:16:26;5.60;99.90
16102;DHT22;56411;52.964;10.540;2022-12-20T00:18:57;5.70;99.90
16102;DHT22;56411;52.964;10.540;2022-12-20T00:21:26;5.70;99.90
16102;DHT22;56411;52.964;10.540;2022-12-20T00:23:54;5.70;99.90
16102;DHT22;56411;52.964;10.540;2022-12-20T00:26:25;5.70;99.90
16102;DHT22;56411;52.964;10.540;2022-12-20T00:28:52;5.60;99.90
16102;DHT22;56411;52.964;10.540;2022-12-20T00:31:21;5.70;99.90
16102;DHT22;56411;52.964;10.540;2022-12-20T00:33:52;5.60;99.90
16102;DHT22;56411;52.964;10.540;2022-12-20T00:36:20;5.60;99.90
16102;DHT22;56411;52.964;10.540;2022-12-20T00:38:50;5.60;99.90
16102;DHT22;56411;52.964;10.540;2022-12-20T00:41:20;5.60;99.90
16102;DHT22;56411;52.964;10.540;2022-12-20T00:43:49;5.70;99.90
16102;DHT22;56411;52.964;10.540;2022-12-20T00:46:18;5.60;99.90
16102;DHT22;56411;52.964;10.540;2022-12-20T00:48:46;5.60;99.90
16102;DHT22;56411;52.964;10.540;2022-12-20T00:51:16;5.60;99.90
16102;DHT22;56411;52.964;10.540;2022-12-20T00:53:44;5.60;99.90
16102;DHT22;56411;52.964;10.540;2022-12-20T00:56:12;5.60;99.90
16102;DHT22;56411;52.964;10.540;2022-12-20T00:58:40;5.60;99.90
16102;DHT22;56411;52.964;10.540;2022-12-20T01:01:16;5.60;99.90
16102;DHT22;56411;52.964;10.540;2022-12-20T01:03:44;5.60;99.90
16102;DHT22;56411;52.964;10.540;2022-12-20T01:06:14;5.70;99.90
16102;DHT22;56411;52.964;10.540;2022-12-20T01:08:42;5.60;99.90
16102;DHT22;56411;52.964;10.540;2022-12-20T01:11:11;5.60;99.90
16102;DHT22;56411;52.964;10.540;2022-12-20T01:13:40;5.60;99.90
16102;DHT22;56411;52.964;10.540;2022-12-20T01:16:11;5.60;99.90
16102;DHT22;56411;52.964;10.540;2022-12-20T01:18:38;5.70;99.90
16102;DHT22;56411;52.964;10.540;2022-12-20T01:21:08;5.60;99.90
16102;DHT22;56411;52.964;10.540;2022-12-20T01:23:38;5.60;99.90
16102;DHT22;56411;52.964;10.540;2022-12-20T01:26:07;5.70;99.90
16102;DHT22;56411;52.964;10.540;2022-12-20T01:28:36;5.60;99.90
16102;DHT22;56411;52.964;10.540;2022-12-20T01:31:05;5.60;99.90
16102;DHT22;56411;52.964;10.540;2022-12-20T01:33:33;5.70;99.90
16102;DHT22;56411;52.964;10.540;2022-12-20T01:36:02;5.70;99.90
16102;DHT22;56411;52.964;10.540;2022-12-20T01:38:30;5.70;99.90
16102;DHT22;56411;52.964;10.540;2022-12-20T01:40:59;5.70;99.90
16102;DHT22;56411;52.964;10.540;2022-12-20T01:43:45;5.90;99.90
16102;DHT22;56411;52.964;10.540;2022-12-20T01:46:13;5.80;99.90
16102;DHT22;56411;52.964;10.540;2022-12-20T01:48:45;5.80;99.90
16102;DHT22;56411;52.964;10.540;2022-12-20T01:51:14;5.70;99.90
16102;DHT22;56411;52.964;10.540;2022-12-20T01:53:42;5.70;99.90
16102;DHT22;56411;52.964;10.540;2022-12-20T01:56:11;5.80;99.90
16102;DHT22;56411;52.964;10.540;2022-12-20T01:58:38;5.90;99.90
16102;DHT22;56411;52.964;10.540;2022-12-20T02:01:06;5.90;99.90
16102;DHT22;56411;52.964;10.540;2022-12-20T02:03:36;5.90;99.90
16102;DHT22;56411;52.964;10.540;2022-12-20T02:06:16;5.90;99.90
16102;DHT22;56411;52.964;10.540;2022-12-20T02:08:46;5.90;99.90
16102;DHT22;56411;52.964;10.540;2022-12-20T02:11:28;5.80;99.90
16102;DHT22;56411;52.964;10.540;2022-12-20T02:14:10;5.80;99.90
16102;DHT22;56411;52.964;10.540;2022-12-20T02:16:43;5.90;99.90
16102;DHT22;56411;52.964;10.540;2022-12-20T02:19:24;5.90;99.90
16102;DHT22;56411;52.964;10.540;2022-12-20T02:22:07;6.00;99.90
16102;DHT22;56411;52.964;10.540;2022-12-20T02:25:08;5.90;99.90
16102;DHT22;56411;52.964;10.540;2022-12-20T02:27:47;5.80;99.90
16102;DHT22;56411;52.964;10.540;2022-12-20T02:30:20;5.90;99.90
16102;DHT22;56411;52.964;10.540;2022-12-20T02:32:52;5.80;99.90
16102;DHT22;56411;52.964;10.540;2022-12-20T02:35:24;5.90;99.90
16102;DHT22;56411;52.964;10.540;2022-12-20T02:37:53;5.80;99.90
16102;DHT22;56411;52.964;10.540;2022-12-20T02:40:23;5.80;99.90
16102;DHT22;56411;52.964;10.540;2022-12-20T02:42:55;5.80;99.90
16102;DHT22;56411;52.964;10.540;2022-12-20T02:45:27;5.70;99.90
16102;DHT22;56411;52.964;10.540;2022-12-20T02:47:58;5.80;99.90
16102;DHT22;56411;52.964;10.540;2022-12-20T02:50:31;5.80;99.90
16102;DHT22;56411;52.964;10.540;2022-12-20T02:53:01;5.80;99.90
16102;DHT22;56411;52.964;10.540;2022-12-20T02:55:35;5.80;99.90
16102;DHT22;56411;52.964;10.540;2022-12-20T02:58:08;5.90;99.90
16102;DHT22;56411;52.964;10.540;2022-12-20T03:00:39;5.80;99.90
16102;DHT22;56411;52.964;10.540;2022-12-20T03:03:08;5.90;99.90
16102;DHT22;56411;52.964;10.540;2022-12-20T03:05:52;5.90;99.90
16102;DHT22;56411;52.964;10.540;2022-12-20T03:08:20;6.00;99.90
16102;DHT22;56411;52.964;10.540;2022-12-20T03:10:49;6.00;99.90
16102;DHT22;56411;52.964;10.540;2022-12-20T03:13:17;6.10;99.90
16102;DHT22;56411;52.964;10.540;2022-12-20T03:15:46;6.00;99.90
16102;DHT22;56411;52.964;10.540;2022-12-20T03:18:13;6.10;99.90
16102;DHT22;56411;52.964;10.540;2022-12-20T03:20:40;6.20;99.90
16102;DHT22;56411;52.964;10.540;2022-12-20T03:23:07;6.20;99.90
16102;DHT22;56411;52.964;10.540;2022-12-20T03:25:35;6.20;99.90
16102;DHT22;56411;52.964;10.540;2022-12-20T03:28:02;6.10;99.90
16102;DHT22;56411;52.964;10.540;2022-12-20T03:30:30;6.20;99.90
16102;DHT22;56411;52.964;10.540;2022-12-20T03:32:58;6.30;99.90
16102;DHT22;56411;52.964;10.540;2022-12-20T03:35:26;6.30;99.90
16102;DHT22;56411;52.964;10.540;2022-12-20T03:37:53;6.30;99.90
16102;DHT22;56411;52.964;10.540;2022-12-20T03:40:21;6.30;99.90
16102;DHT22;56411;52.964;10.540;2022-12-20T03:42:48;6.40;99.90
16102;DHT22;56411;52.964;10.540;2022-12-20T03:45:16;6.40;99.90
16102;DHT22;56411;52.964;10.540;2022-12-20T03:47:43;6.40;99.90
16102;DHT22;56411;52.964;10.540;2022-12-20T03:50:12;6.40;99.90
16102;DHT22;56411;52.964;10.540;2022-12-20T03:52:39;6.40;99.90
16102;DHT22;56411;52.964;10.540;2022-12-20T03:55:07;6.40;99.90
16102;DHT22;56411;52.964;10.540;2022-12-20T03:57:37;6.40;99.90
16102;DHT22;56411;52.964;10.540;2022-12-20T04:00:06;6.40;99.90
16102;DHT22;56411;52.964;10.540;2022-12-20T04:02:33;6.30;99.90
16102;DHT22;56411;52.964;10.540;2022-12-20T04:05:00;6.40;99.90
16102;DHT22;56411;52.964;10.540;2022-12-20T04:07:30;6.40;99.90
16102;DHT22;56411;52.964;10.540;2022-12-20T04:09:57;6.50;99.90
16102;DHT22;56411;52.964;10.540;2022-12-20T04:12:25;6.50;99.90
16102;DHT22;56411;52.964;10.540;2022-12-20T04:14:56;6.50;99.90
16102;DHT22;56411;52.964;10.540;2022-12-20T04:17:23;6.60;99.90
16102;DHT22;56411;52.964;10.540;2022-12-20T04:19:51;6.60;99.90
16102;DHT22;56411;52.964;10.540;2022-12-20T04:22:18;6.70;99.90
16102;DHT22;56411;52.964;10.540;2022-12-20T04:24:48;6.70;99.90
16102;DHT22;56411;52.964;10.540;2022-12-20T04:27:15;6.70;99.90
16102;DHT22;56411;52.964;10.540;2022-12-20T04:29:43;6.80;99.90
16102;DHT22;56411;52.964;10.540;2022-12-20T04:32:10;6.80;99.90
16102;DHT22;56411;52.964;10.540;2022-12-20T04:34:40;6.90;99.90
16102;DHT22;56411;52.964;10.540;2022-12-20T04:37:08;6.90;99.90
16102;DHT22;56411;52.964;10.540;2022-12-20T04:39:35;6.90;99.90
16102;DHT22;56411;52.964;10.540;2022-12-20T04:42:04;6.90;99.90
16102;DHT22;56411;52.964;10.540;2022-12-20T04:44:32;6.90;99.90
16102;DHT22;56411;52.964;10.540;2022-12-20T04:46:59;6.90;99.90
16102;DHT22;56411;52.964;10.540;2022-12-20T04:49:30;6.90;99.90
16102;DHT22;56411;52.964;10.540;2022-12-20T04:51:58;6.90;99.90
16102;DHT22;56411;52.964;10.540;2022-12-20T04:54:45;7.00;99.90
16102;DHT22;56411;52.964;10.540;2022-12-20T04:57:13;6.90;99.90
16102;DHT22;56411;52.964;10.540;2022-12-20T04:59:40;6.90;99.90
16102;DHT22;56411;52.964;10.540;2022-12-20T05:02:10;7.00;99.90
16102;DHT22;56411;52.964;10.540;2022-12-20T05:04:37;7.00;99.90
16102;DHT22;56411;52.964;10.540;2022-12-20T05:07:04;7.00;99.90
16102;DHT22;56411;52.964;10.540;2022-12-20T05:09:32;7.00;99.90
16102;DHT22;56411;52.964;10.540;2022-12-20T05:11:59;7.00;99.90
16102;DHT22;56411;52.964;10.540;2022-12-20T05:14:36;7.00;99.90
16102;DHT22;56411;52.964;10.540;2022-12-20T05:17:05;7.00;99.90
16102;DHT22;56411;52.964;10.540;2022-12-20T05:19:34;7.00;99.90
16102;DHT22;56411;52.964;10.540;2022-12-20T05:22:01;7.00;99.90
16102;DHT22;56411;52.964;10.540;2022-12-20T05:24:48;7.00;99.90
16102;DHT22;56411;52.964;10.540;2022-12-20T05:27:32;7.00;99.90
16102;DHT22;56411;52.964;10.540;2022-12-20T05:30:01;7.00;99.90
16102;DHT22;56411;52.964;10.540;2022-12-20T05:32:28;7.00;99.90
16102;DHT22;56411;52.964;10.540;2022-12-20T05:34:56;7.10;99.90
16102;DHT22;56411;52.964;10.540;2022-12-20T05:37:23;7.00;99.90
16102;DHT22;56411;52.964;10.540;2022-12-20T05:39:50;6.90;99.90
16102;DHT22;56411;52.964;10.540;2022-12-20T05:42:17;7.00;99.90
16102;DHT22;56411;52.964;10.540;2022-12-20T05:44:45;7.00;99.90
16102;DHT22;56411;52.964;10.540;2022-12-20T05:47:13;7.00;99.90
16102;DHT22;56411;52.964;10.540;2022-12-20T05:49:41;7.00;99.90
16102;DHT22;56411;52.964;10.540;2022-12-20T05:52:12;7.00;99.90
16102;DHT22;56411;52.964;10.540;2022-12-20T05:54:39;7.00;99.90
16102;DHT22;56411;52.964;10.540;2022-12-20T05:57:09;7.00;99.90
16102;DHT22;56411;52.964;10.540;2022-12-20T05:59:36;6.90;99.90
16102;DHT22;56411;52.964;10.540;2022-12-20T06:02:03;6.90;99.90
16102;DHT22;56411;52.964;10.540;2022-12-20T06:04:32;6.90;99.90
16102;DHT22;56411;52.964;10.540;2022-12-20T06:06:59;6.90;99.90
16102;DHT22;56411;52.964;10.540;2022-12-20T06:09:27;6.90;99.90
16102;DHT22;56411;52.964;10.540;2022-12-20T06:11:55;6.90;99.90
16102;DHT22;56411;52.964;10.540;2022-12-20T06:14:22;6.90;99.90
16102;DHT22;56411;52.964;10.540;2022-12-20T06:16:50;6.90;99.90
16102;DHT22;56411;52.964;10.540;2022-12-20T06:19:18;6.90;99.90
16102;DHT22;56411;52.964;10.540;2022-12-20T06:21:47;6.90;99.90
16102;DHT22;56411;52.964;10.540;2022-12-20T06:24:14;7.00;99.90
16102;DHT22;56411;52.964;10.540;2022-12-20T06:26:42;6.90;99.90
16102;DHT22;56411;52.964;10.540;2022-12-20T06:29:09;7.00;99.90
16102;DHT22;56411;52.964;10.540;2022-12-20T06:31:38;6.90;99.90
16102;DHT22;56411;52.964;10.540;2022-12-20T06:34:05;7.00;99.90
16102;DHT22;56411;52.964;10.540;2022-12-20T06:36:33;7.00;99.90
16102;DHT22;56411;52.964;10.540;2022-12-20T06:39:01;7.00;99.90
16102;DHT22;56411;52.964;10.540;2022-12-20T06:41:28;7.10;99.90
16102;DHT22;56411;52.964;10.540;2022-12-20T06:43:55;7.10;99.90
16102;DHT22;56411;52.964;10.540;2022-12-20T06:46:23;7.10;99.90
16102;DHT22;56411;52.964;10.540;2022-12-20T06:48:50;7.10;99.90
16102;DHT22;56411;52.964;10.540;2022-12-20T06:51:19;7.10;99.90
16102;DHT22;56411;52.964;10.540;2022-12-20T06:53:46;7.10;99.90
16102;DHT22;56411;52.964;10.540;2022-12-20T06:56:15;7.20;99.90
16102;DHT22;56411;52.964;10.540;2022-12-20T06:58:45;7.10;99.90
16102;DHT22;56411;52.964;10.540;2022-12-20T07:01:12;7.10;99.90
16102;DHT22;56411;52.964;10.540;2022-12-20T07:03:39;7.20;99.90
16102;DHT22;56411;52.964;10.540;2022-12-20T07:06:07;7.20;99.90
16102;DHT22;56411;52.964;10.540;2022-12-20T07:08:34;7.20;99.90
16102;DHT22;56411;52.964;10.540;2022-12-20T07:11:05;7.20;99.90
16102;DHT22;56411;52.964;10.540;2022-12-20T07:13:34;7.20;99.90
16102;DHT22;56411;52.964;10.540;2022-12-20T07:16:02;7.20;99.90
16102;DHT22;56411;52.964;10.540;2022-12-20T07:18:29;7.20;99.90
16102;DHT22;56411;52.964;10.540;2022-12-20T07:20:59;7.20;99.90
16102;DHT22;56411;52.964;10.540;2022-12-20T07:23:26;7.20;99.90
16102;DHT22;56411;52.964;10.540;2022-12-20T07:25:54;7.20;99.90
16102;DHT22;56411;52.964;10.540;2022-12-20T07:28:22;7.30;99.90
16102;DHT22;56411;52.964;10.540;2022-12-20T07:30:50;7.30;99.90
16102;DHT22;56411;52.964;10.540;2022-12-20T07:33:18;7.40;99.90
16102;DHT22;56411;52.964;10.540;2022-12-20T07:35:45;7.40;99.90
16102;DHT22;56411;52.964;10.540;2022-12-20T07:38:12;7.40;99.90
16102;DHT22;56411;52.964;10.540;2022-12-20T07:40:40;7.40;99.90
16102;DHT22;56411;52.964;10.540;2022-12-20T07:43:08;7.50;99.90
16102;DHT22;56411;52.964;10.540;2022-12-20T07:45:35;7.50;99.90
16102;DHT22;56411;52.964;10.540;2022-12-20T07:48:05;7.50;99.90
16102;DHT22;56411;52.964;10.540;2022-12-20T07:50:33;7.50;99.90
16102;DHT22;56411;52.964;10.540;2022-12-20T07:53:01;7.60;99.90
16102;DHT22;56411;52.964;10.540;2022-12-20T07:55:31;7.50;99.90
16102;DHT22;56411;52.964;10.540;2022-12-20T07:58:04;7.50;99.90
16102;DHT22;56411;52.964;10.540;2022-12-20T08:00:32;7.40;99.90
16102;DHT22;56411;52.964;10.540;2022-12-20T08:03:03;7.50;99.90
16102;DHT22;56411;52.964;10.540;2022-12-20T08:05:34;7.50;99.90
16102;DHT22;56411;52.964;10.540;2022-12-20T08:08:04;7.50;99.90
16102;DHT22;56411;52.964;10.540;2022-12-20T08:10:32;7.50;99.90
16102;DHT22;56411;52.964;10.540;2022-12-20T08:12:59;7.50;99.90
16102;DHT22;56411;52.964;10.540;2022-12-20T08:15:27;7.50;99.90
16102;DHT22;56411;52.964;10.540;2022-12-20T08:17:58;7.50;99.90
16102;DHT22;56411;52.964;10.540;2022-12-20T08:20:26;7.50;99.90
16102;DHT22;56411;52.964;10.540;2022-12-20T08:22:54;7.50;99.90
16102;DHT22;56411;52.964;10.540;2022-12-20T08:25:22;7.50;99.90
16102;DHT22;56411;52.964;10.540;2022-12-20T08:27:49;7.50;99.90
16102;DHT22;56411;52.964;10.540;2022-12-20T08:30:16;7.60;99.90
16102;DHT22;56411;52.964;10.540;2022-12-20T08:32:43;7.60;99.90
16102;DHT22;56411;52.964;10.540;2022-12-20T08:35:10;7.60;99.90
16102;DHT22;56411;52.964;10.540;2022-12-20T08:37:38;7.60;99.90
16102;DHT22;56411;52.964;10.540;2022-12-20T08:40:10;7.60;99.90
16102;DHT22;56411;52.964;10.540;2022-12-20T08:42:37;7.60;99.90
16102;DHT22;56411;52.964;10.540;2022-12-20T08:45:05;7.70;99.90
16102;DHT22;56411;52.964;10.540;2022-12-20T08:47:32;7.70;99.90
16102;DHT22;56411;52.964;10.540;2022-12-20T08:49:59;7.70;99.90
16102;DHT22;56411;52.964;10.540;2022-12-20T08:52:28;7.80;99.90
16102;DHT22;56411;52.964;10.540;2022-12-20T08:54:55;7.80;99.90
16102;DHT22;56411;52.964;10.540;2022-12-20T08:57:24;7.80;99.90
16102;DHT22;56411;52.964;10.540;2022-12-20T08:59:51;7.80;99.90
16102;DHT22;56411;52.964;10.540;2022-12-20T09:02:18;7.90;99.90
16102;DHT22;56411;52.964;10.540;2022-12-20T09:04:45;7.90;99.90
16102;DHT22;56411;52.964;10.540;2022-12-20T09:07:13;7.90;99.90
16102;DHT22;56411;52.964;10.540;2022-12-20T09:09:40;8.00;99.90
16102;DHT22;56411;52.964;10.540;2022-12-20T09:12:10;8.00;99.90
16102;DHT22;56411;52.964;10.540;2022-12-20T09:14:39;8.10;99.90
16102;DHT22;56411;52.964;10.540;2022-12-20T09:17:07;8.20;99.90
16102;DHT22;56411;52.964;10.540;2022-12-20T09:19:34;8.20;99.90
16102;DHT22;56411;52.964;10.540;2022-12-20T09:22:01;8.20;99.90
16102;DHT22;56411;52.964;10.540;2022-12-20T09:24:29;8.20;99.90
16102;DHT22;56411;52.964;10.540;2022-12-20T09:26:56;8.20;99.90
16102;DHT22;56411;52.964;10.540;2022-12-20T09:29:23;8.30;99.90
16102;DHT22;56411;52.964;10.540;2022-12-20T09:31:52;8.30;99.90
16102;DHT22;56411;52.964;10.540;2022-12-20T09:34:22;8.30;99.90
16102;DHT22;56411;52.964;10.540;2022-12-20T09:36:49;8.30;99.90
16102;DHT22;56411;52.964;10.540;2022-12-20T09:39:16;8.40;99.90
16102;DHT22;56411;52.964;10.540;2022-12-20T09:41:44;8.50;99.90
16102;DHT22;56411;52.964;10.540;2022-12-20T09:44:14;8.50;99.90
16102;DHT22;56411;52.964;10.540;2022-12-20T09:46:43;8.50;99.90
16102;DHT22;56411;52.964;10.540;2022-12-20T09:49:15;8.50;99.90
16102;DHT22;56411;52.964;10.540;2022-12-20T09:52:06;8.60;99.90
16102;DHT22;56411;52.964;10.540;2022-12-20T09:54:44;8.60;99.90
16102;DHT22;56411;52.964;10.540;2022-12-20T09:57:20;8.60;99.90
16102;DHT22;56411;52.964;10.540;2022-12-20T09:59:51;8.70;99.90
16102;DHT22;56411;52.964;10.540;2022-12-20T10:02:20;8.70;99.90
16102;DHT22;56411;52.964;10.540;2022-12-20T10:04:50;8.70;99.90
16102;DHT22;56411;52.964;10.540;2022-12-20T10:07:30;8.80;99.90
16102;DHT22;56411;52.964;10.540;2022-12-20T10:10:20;8.80;99.90
16102;DHT22;56411;52.964;10.540;2022-12-20T10:12:56;8.90;99.90
16102;DHT22;56411;52.964;10.540;2022-12-20T10:15:29;8.90;99.90
16102;DHT22;56411;52.964;10.540;2022-12-20T10:18:11;8.90;99.90
16102;DHT22;56411;52.964;10.540;2022-12-20T10:20:54;8.90;99.90
16102;DHT22;56411;52.964;10.540;2022-12-20T10:23:27;9.00;99.90
16102;DHT22;56411;52.964;10.540;2022-12-20T10:25:57;9.10;99.90
16102;DHT22;56411;52.964;10.540;2022-12-20T10:28:27;9.10;99.90
16102;DHT22;56411;52.964;10.540;2022-12-20T10:30:58;9.20;99.90
16102;DHT22;56411;52.964;10.540;2022-12-20T10:33:26;9.20;99.90
16102;DHT22;56411;52.964;10.540;2022-12-20T10:35:55;9.30;99.90
16102;DHT22;56411;52.964;10.540;2022-12-20T10:38:45;9.30;99.90
16102;DHT22;56411;52.964;10.540;2022-12-20T10:41:16;9.30;99.90
16102;DHT22;56411;52.964;10.540;2022-12-20T10:43:45;9.20;99.90
16102;DHT22;56411;52.964;10.540;2022-12-20T10:46:14;9.20;99.90
16102;DHT22;56411;52.964;10.540;2022-12-20T10:48:43;9.20;99.90
16102;DHT22;56411;52.964;10.540;2022-12-20T10:51:17;9.20;99.90
16102;DHT22;56411;52.964;10.540;2022-12-20T10:53:54;9.30;99.90
16102;DHT22;56411;52.964;10.540;2022-12-20T10:56:23;9.30;99.90
16102;DHT22;56411;52.964;10.540;2022-12-20T10:58:54;9.40;99.90
16102;DHT22;56411;52.964;10.540;2022-12-20T11:01:24;9.50;99.90
16102;DHT22;56411;52.964;10.540;2022-12-20T11:03:55;9.40;99.90
16102;DHT22;56411;52.964;10.540;2022-12-20T11:06:27;9.40;99.90
16102;DHT22;56411;52.964;10.540;2022-12-20T11:09:20;9.40;99.90
16102;DHT22;56411;52.964;10.540;2022-12-20T11:12:10;9.30;99.90
16102;DHT22;56411;52.964;10.540;2022-12-20T11:15:06;9.40;99.90
16102;DHT22;56411;52.964;10.540;2022-12-20T11:17:55;9.40;99.90
16102;DHT22;56411;52.964;10.540;2022-12-20T11:20:39;9.40;99.90
16102;DHT22;56411;52.964;10.540;2022-12-20T11:23:19;9.40;99.90
16102;DHT22;56411;52.964;10.540;2022-12-20T11:26:00;9.40;99.90
16102;DHT22;56411;52.964;10.540;2022-12-20T11:28:42;9.50;99.90
16102;DHT22;56411;52.964;10.540;2022-12-20T11:31:17;9.50;99.90
16102;DHT22;56411;52.964;10.540;2022-12-20T11:34:01;9.50;99.90
16102;DHT22;56411;52.964;10.540;2022-12-20T11:36:43;9.40;99.90
16102;DHT22;56411;52.964;10.540;2022-12-20T11:39:23;9.40;99.90
16102;DHT22;56411;52.964;10.540;2022-12-20T11:41:59;9.40;99.90
16102;DHT22;56411;52.964;10.540;2022-12-20T11:44:38;9.40;99.90
16102;DHT22;56411;52.964;10.540;2022-12-20T11:47:21;9.40;99.90
16102;DHT22;56411;52.964;10.540;2022-12-20T11:50:03;9.50;99.90
16102;DHT22;56411;52.964;10.540;2022-12-20T11:52:42;9.50;99.90
16102;DHT22;56411;52.964;10.540;2022-12-20T11:55:17;9.50;99.90
16102;DHT22;56411;52.964;10.540;2022-12-20T11:57:52;9.50;99.90
16102;DHT22;56411;52.964;10.540;2022-12-20T12:00:22;9.40;99.90
16102;DHT22;56411;52.964;10.540;2022-12-20T12:02:53;9.50;99.90
16102;DHT22;56411;52.964;10.540;2022-12-20T12:05:27;9.50;99.90
16102;DHT22;56411;52.964;10.540;2022-12-20T12:07:58;9.50;99.90
16102;DHT22;56411;52.964;10.540;2022-12-20T12:10:33;9.50;99.90
16102;DHT22;56411;52.964;10.540;2022-12-20T12:13:10;9.50;99.90
16102;DHT22;56411;52.964;10.540;2022-12-20T12:15:50;9.50;99.90
16102;DHT22;56411;52.964;10.540;2022-12-20T12:18:21;9.60;99.90
16102;DHT22;56411;52.964;10.540;2022-12-20T12:20:53;9.60;99.90
16102;DHT22;56411;52.964;10.540;2022-12-20T12:23:26;9.50;99.90
16102;DHT22;56411;52.964;10.540;2022-12-20T12:25:58;9.50;99.90
16102;DHT22;56411;52.964;10.540;2022-12-20T12:28:28;9.50;99.90
16102;DHT22;56411;52.964;10.540;2022-12-20T12:30:58;9.50;99.90
16102;DHT22;56411;52.964;10.540;2022-12-20T12:33:31;9.50;99.90
16102;DHT22;56411;52.964;10.540;2022-12-20T12:36:15;9.50;99.90
16102;DHT22;56411;52.964;10.540;2022-12-20T12:45:16;9.50;99.90
16102;DHT22;56411;52.964;10.540;2022-12-20T12:47:50;9.50;99.90
16102;DHT22;56411;52.964;10.540;2022-12-20T12:50:24;9.50;99.90
16102;DHT22;56411;52.964;10.540;2022-12-20T12:52:55;9.50;99.90
16102;DHT22;56411;52.964;10.540;2022-12-20T12:55:41;9.50;99.90
16102;DHT22;56411;52.964;10.540;2022-12-20T13:01:05;9.50;99.90
16102;DHT22;56411;52.964;10.540;2022-12-20T13:03:43;9.50;99.90
16102;DHT22;56411;52.964;10.540;2022-12-20T13:09:41;9.50;99.90
16102;DHT22;56411;52.964;10.540;2022-12-20T13:15:51;9.50;99.90
16102;DHT22;56411;52.964;10.540;2022-12-20T13:18:23;9.50;99.90
16102;DHT22;56411;52.964;10.540;2022-12-20T13:27:22;9.50;99.90
16102;DHT22;56411;52.964;10.540;2022-12-20T13:32:57;9.50;99.90
16102;DHT22;56411;52.964;10.540;2022-12-20T13:35:29;9.50;99.90
16102;DHT22;56411;52.964;10.540;2022-12-20T13:37:59;9.50;99.90
16102;DHT22;56411;52.964;10.540;2022-12-20T13:40:34;9.50;99.90
16102;DHT22;56411;52.964;10.540;2022-12-20T13:43:06;9.40;99.90
16102;DHT22;56411;52.964;10.540;2022-12-20T13:45:38;9.40;99.90
16102;DHT22;56411;52.964;10.540;2022-12-20T13:48:17;9.40;99.90
16102;DHT22;56411;52.964;10.540;2022-12-20T13:51:01;9.40;99.90
16102;DHT22;56411;52.964;10.540;2022-12-20T13:53:30;9.40;99.90
16102;DHT22;56411;52.964;10.540;2022-12-20T13:55:58;9.40;99.90
16102;DHT22;56411;52.964;10.540;2022-12-20T13:58:45;9.30;99.90
16102;DHT22;56411;52.964;10.540;2022-12-20T14:01:13;9.30;99.90
16102;DHT22;56411;52.964;10.540;2022-12-20T14:03:46;9.30;99.90
16102;DHT22;56411;52.964;10.540;2022-12-20T14:06:14;9.20;99.90
16102;DHT22;56411;52.964;10.540;2022-12-20T14:08:45;9.20;99.90
16102;DHT22;56411;52.964;10.540;2022-12-20T14:11:14;9.30;99.90
16102;DHT22;56411;52.964;10.540;2022-12-20T14:13:50;9.30;99.90
16102;DHT22;56411;52.964;10.540;2022-12-20T14:16:18;9.20;99.90
16102;DHT22;56411;52.964;10.540;2022-12-20T14:18:59;9.20;99.90
16102;DHT22;56411;52.964;10.540;2022-12-20T14:21:27;9.20;99.90
16102;DHT22;56411;52.964;10.540;2022-12-20T14:23:55;9.30;99.90
16102;DHT22;56411;52.964;10.540;2022-12-20T14:26:25;9.30;99.90
16102;DHT22;56411;52.964;10.540;2022-12-20T14:28:54;9.30;99.90
16102;DHT22;56411;52.964;10.540;2022-12-20T14:31:24;9.40;99.90
16102;DHT22;56411;52.964;10.540;2022-12-20T14:34:01;9.40;99.90
16102;DHT22;56411;52.964;10.540;2022-12-20T14:36:28;9.50;99.90
16102;DHT22;56411;52.964;10.540;2022-12-20T14:38:56;9.50;99.90
16102;DHT22;56411;52.964;10.540;2022-12-20T14:41:32;9.50;99.90
16102;DHT22;56411;52.964;10.540;2022-12-20T14:44:10;9.50;99.90
16102;DHT22;56411;52.964;10.540;2022-12-20T14:46:39;9.50;99.90
16102;DHT22;56411;52.964;10.540;2022-12-20T14:49:24;9.40;99.90
16102;DHT22;56411;52.964;10.540;2022-12-20T14:52:05;9.40;99.90
16102;DHT22;56411;52.964;10.540;2022-12-20T14:54:33;9.40;99.90
16102;DHT22;56411;52.964;10.540;2022-12-20T14:57:01;9.40;99.90
16102;DHT22;56411;52.964;10.540;2022-12-20T14:59:28;9.40;99.90
16102;DHT22;56411;52.964;10.540;2022-12-20T15:01:57;9.40;99.90
16102;DHT22;56411;52.964;10.540;2022-12-20T15:04:45;9.40;99.90
16102;DHT22;56411;52.964;10.540;2022-12-20T15:07:28;9.30;99.90
16102;DHT22;56411;52.964;10.540;2022-12-20T15:09:55;9.30;99.90
16102;DHT22;56411;52.964;10.540;2022-12-20T15:12:23;9.30;99.90
16102;DHT22;56411;52.964;10.540;2022-12-20T15:14:50;9.30;99.90
16102;DHT22;56411;52.964;10.540;2022-12-20T15:17:17;9.30;99.90
16102;DHT22;56411;52.964;10.540;2022-12-20T15:19:48;9.30;99.90
16102;DHT22;56411;52.964;10.540;2022-12-20T15:22:16;9.30;99.90
16102;DHT22;56411;52.964;10.540;2022-12-20T15:24:44;9.20;99.90
16102;DHT22;56411;52.964;10.540;2022-12-20T15:27:12;9.10;99.90
16102;DHT22;56411;52.964;10.540;2022-12-20T15:29:39;9.10;99.90
16102;DHT22;56411;52.964;10.540;2022-12-20T15:32:14;9.10;99.90
16102;DHT22;56411;52.964;10.540;2022-12-20T15:34:42;9.00;99.90
16102;DHT22;56411;52.964;10.540;2022-12-20T15:37:13;9.00;99.90
16102;DHT22;56411;52.964;10.540;2022-12-20T15:39:41;9.00;99.90
16102;DHT22;56411;52.964;10.540;2022-12-20T15:42:12;9.00;99.90
16102;DHT22;56411;52.964;10.540;2022-12-20T15:44:41;8.90;99.90
16102;DHT22;56411;52.964;10.540;2022-12-20T15:47:10;9.00;99.90
16102;DHT22;56411;52.964;10.540;2022-12-20T15:49:38;9.00;99.90
16102;DHT22;56411;52.964;10.540;2022-12-20T15:52:05;9.00;99.90
16102;DHT22;56411;52.964;10.540;2022-12-20T15:54:38;9.10;99.90
16102;DHT22;56411;52.964;10.540;2022-12-20T15:57:08;9.10;99.90
16102;DHT22;56411;52.964;10.540;2022-12-20T15:59:39;9.10;99.90
16102;DHT22;56411;52.964;10.540;2022-12-20T16:02:16;9.10;99.90
16102;DHT22;56411;52.964;10.540;2022-12-20T16:04:49;9.10;99.90
16102;DHT22;56411;52.964;10.540;2022-12-20T16:07:20;9.10;99.90
16102;DHT22;56411;52.964;10.540;2022-12-20T16:09:49;9.10;99.90
16102;DHT22;56411;52.964;10.540;2022-12-20T16:12:21;9.00;99.90
16102;DHT22;56411;52.964;10.540;2022-12-20T16:14:49;9.00;99.90
16102;DHT22;56411;52.964;10.540;2022-12-20T16:17:21;9.00;99.90
16102;DHT22;56411;52.964;10.540;2022-12-20T16:19:54;9.10;99.90